CW8081 Thessaloniki GR current weather conditions

sailwx.info

Wind from 032 at 1 knots gusting 4

Air temperature 7.8° C
Dewpoint 6.2° C

Last reported at 2014-Nov-27 19:41 UTC.
Time now 2014-Nov-27 20:43 UTC

Location: N 40°34' E 022°58'.
View on Google Maps.

See reports from other nearby stations

  
Tides and Currents Weather Stations Pressure Air Temp Water Temp Dewpoint Dewpoint Depression Visibility Wind Speed Wind Dir Waves Ship Positions
date/time (UTC)wind fromknots sea level pressurealtimeterstation pressurevisibilityair tempwater tempwave heightnotes
2014-Nov-27 19:41 032 1 gusting 4 7.8
2014-Nov-27 19:31 032 0 gusting 2 7.8
2014-Nov-27 19:11 031 7.8
2014-Nov-27 19:01 031 7.8
2014-Nov-27 18:41 032 7.8
2014-Nov-27 18:31 032 2 gusting 4 7.8
2014-Nov-27 18:11 032 7.8
2014-Nov-27 18:01 032 7.8
2014-Nov-27 17:41 032 7.8
2014-Nov-27 17:31 032 7.8
2014-Nov-27 17:11 032 7.8
2014-Nov-27 17:01 032 7.8
2014-Nov-27 16:41 032 0 gusting 2 7.8
2014-Nov-27 16:31 032 7.8
2014-Nov-27 16:11 031 7.8
2014-Nov-27 16:01 032 7.8
2014-Nov-27 15:41 032 3 gusting 6 7.8
2014-Nov-27 15:31 029 2 gusting 5 7.8
2014-Nov-27 15:11 022 7.8
2014-Nov-27 15:01 022 7.8
2014-Nov-27 14:41 022 7.8
2014-Nov-27 14:31 022 1 gusting 4 7.8
2014-Nov-27 14:11 022 2 gusting 4 7.8
2014-Nov-27 14:01 022 2 gusting 5 7.8
2014-Nov-27 13:41 022 2 gusting 5 7.8
2014-Nov-27 13:31 017 4 gusting 6 7.8
2014-Nov-27 13:11 350 4 gusting 6 7.8
2014-Nov-27 13:01 346 2 gusting 5 7.8
2014-Nov-27 12:41 344 0 gusting 5 7.8
2014-Nov-27 12:31 355 3 gusting 5 7.8
2014-Nov-27 12:11 355 3 gusting 5 7.8
2014-Nov-27 12:01 7.8
2014-Nov-27 11:41 8.3
2014-Nov-27 11:31 355 0 gusting 4 8.3
2014-Nov-27 11:11 7.8
2014-Nov-27 11:01 7.8
2014-Nov-27 10:41 005 2 gusting 5 7.8
2014-Nov-27 10:31 005 4 gusting 6 7.8
2014-Nov-27 10:11 019 5 gusting 6 7.8
2014-Nov-27 10:01 009 4 gusting 6 7.8
2014-Nov-27 09:41 023 5 gusting 6 7.8
2014-Nov-27 09:31 355 4 gusting 6 7.8
2014-Nov-27 09:11 336 2 gusting 4 7.8
2014-Nov-27 09:01 336 2 gusting 4 7.8
2014-Nov-27 08:41 336 1 gusting 4 7.8
2014-Nov-27 08:31 336 0 gusting 2 7.8
2014-Nov-27 08:11 336 1 gusting 2 7.2
2014-Nov-27 08:01 336 7.2
2014-Nov-27 07:41 335 0 gusting 5 7.2
2014-Nov-27 07:31 335 2 gusting 5 7.2
2014-Nov-27 07:11 333 7.2
2014-Nov-27 07:01 332 3 gusting 5 7.2
2014-Nov-27 06:41 332 7.2
2014-Nov-27 06:31 332 1 gusting 2 7.2
2014-Nov-27 06:11 332 0 gusting 2 7.2
2014-Nov-27 06:01 332 0 gusting 4 7.2
2014-Nov-27 05:41 332 0 gusting 4 7.2
2014-Nov-27 05:31 332 2 gusting 5 7.2
2014-Nov-27 05:11 333 0 gusting 4 7.2
2014-Nov-27 05:01 342 1 gusting 5 7.2
2014-Nov-27 04:41 344 0 gusting 5 7.2
2014-Nov-27 04:31 350 2 gusting 6 7.2
2014-Nov-27 04:11 009 0 gusting 4 7.2
2014-Nov-27 04:01 011 0 gusting 5 7.2
2014-Nov-27 03:41 035 0 gusting 2 7.2
2014-Nov-27 03:11 035 7.8
2014-Nov-27 03:01 035 7.8
2014-Nov-27 02:41 035 7.8
2014-Nov-27 02:31 035 7.8
2014-Nov-27 02:11 035 1 gusting 2 7.8
2014-Nov-27 02:01 035 7.8
2014-Nov-27 01:41 035 7.2
2014-Nov-27 01:31 035 7.2
2014-Nov-27 01:11 035 0 gusting 2 7.2
2014-Nov-27 01:01 035 7.2
2014-Nov-27 00:41 065 1 gusting 4 7.2
2014-Nov-27 00:31 075 2 gusting 5 7.2
2014-Nov-27 00:11 096 0 gusting 4 7.8
2014-Nov-27 00:01 112 1 gusting 2 7.8
2014-Nov-26 23:41 157 1 gusting 2 7.8
2014-Nov-26 23:31 157 1 gusting 2 7.8
2014-Nov-26 23:11 161 7.8
2014-Nov-26 23:01 161 7.8
2014-Nov-26 22:41 161 7.8
2014-Nov-26 22:31 161 7.8
2014-Nov-26 22:11 161 7.8
2014-Nov-26 22:01 161 7.8
2014-Nov-26 21:41 161 7.8
2014-Nov-26 21:31 161 7.8
2014-Nov-26 21:11 161 7.8
2014-Nov-26 21:01 161 7.8
2014-Nov-26 20:41 161 7.8
2014-Nov-26 20:31 161 8.3
2014-Nov-26 20:11 161 8.3
2014-Nov-26 20:01 161 8.3
2014-Nov-26 19:41 162 8.3
2014-Nov-26 19:31 162 8.3
2014-Nov-26 19:11 168 1 gusting 5 8.9
2014-Nov-26 19:01 278 8.9
2014-Nov-26 18:41 278 8.9
2014-Nov-26 18:31 278 8.9
2014-Nov-26 18:11 278 8.9
2014-Nov-26 18:01 278 8.9
2014-Nov-26 17:41 278 8.9
2014-Nov-26 17:31 278 8.9
2014-Nov-26 17:11 278 8.9
2014-Nov-26 17:01 278 8.9
2014-Nov-26 16:41 278 9.4
2014-Nov-26 16:31 278 9.4
2014-Nov-26 16:11 278 9.4
2014-Nov-26 16:01 278 9.4
2014-Nov-26 15:41 278 9.4
2014-Nov-26 15:31 278 10.0
2014-Nov-26 15:11 278 10.0
2014-Nov-26 15:01 278 0 gusting 2 10.0
2014-Nov-26 14:41 278 10.0
2014-Nov-26 14:31 278 0 gusting 4 10.0
2014-Nov-26 14:11 278 1 gusting 5 10.0
2014-Nov-26 14:01 278 0 gusting 5 10.0
2014-Nov-26 13:31 278 1 gusting 5 10.0
2014-Nov-26 13:11 277 1 gusting 6 10.0
2014-Nov-26 13:01 266 3 gusting 6 10.0
2014-Nov-26 12:41 266 2 gusting 6 10.0
2014-Nov-26 12:31 281 4 gusting 6 10.6
2014-Nov-26 12:11 273 0 gusting 6 10.6
2014-Nov-26 12:01 284 1 gusting 7 10.0
2014-Nov-26 11:41 343 2 gusting 6 10.0
2014-Nov-26 11:31 288 4 gusting 8 10.0
2014-Nov-26 11:11 316 1 gusting 10 10.0
2014-Nov-26 11:01 308 4 gusting 10 10.6
2014-Nov-26 10:41 308 4 gusting 10 10.6
2014-Nov-26 10:31 281 4 gusting 10 10.6
2014-Nov-26 10:01 326 5 gusting 10 10.0
2014-Nov-26 09:41 020 4 gusting 8 10.0
2014-Nov-26 09:31 038 4 gusting 7 9.4
2014-Nov-26 09:11 019 2 gusting 4 9.4
2014-Nov-26 09:01 019 1 gusting 6 9.4
2014-Nov-26 08:41 044 5 gusting 6 8.9
2014-Nov-26 08:31 005 3 gusting 6 8.9
2014-Nov-26 08:11 021 2 gusting 6 8.9
2014-Nov-26 08:01 021 1 gusting 6 8.9
2014-Nov-26 07:41 026 5 gusting 7 8.3
2014-Nov-26 07:31 029 2 gusting 5 8.3
2014-Nov-26 07:11 032 8.3
2014-Nov-26 07:01 032 0 gusting 5 7.8
2014-Nov-26 06:41 355 7.8
2014-Nov-26 06:31 355 7.8
2014-Nov-26 06:11 355 1 gusting 4 7.8
2014-Nov-26 06:01 355 1 gusting 2 7.8
2014-Nov-26 05:41 355 7.8
2014-Nov-26 05:31 355 7.8
2014-Nov-26 05:11 355 1 gusting 4 7.8
2014-Nov-26 05:01 236 7.8
2014-Nov-26 04:41 236 7.8
2014-Nov-26 04:31 236 7.8
2014-Nov-26 04:11 236 7.8
2014-Nov-26 04:01 236 7.8
2014-Nov-26 03:41 236 7.8
2014-Nov-26 03:31 236 0 gusting 1 7.8
2014-Nov-26 03:11 236 7.8
2014-Nov-26 03:01 236 7.8
2014-Nov-26 02:41 236 7.8
2014-Nov-26 02:31 236 7.8
2014-Nov-26 02:11 236 7.8
2014-Nov-26 02:01 236 7.8
2014-Nov-26 01:41 236 7.2
2014-Nov-26 01:31 236 7.2
2014-Nov-26 01:11 236 7.2
2014-Nov-26 01:01 236 7.2
2014-Nov-26 00:41 236 7.2
2014-Nov-26 00:31 236 7.2
2014-Nov-26 00:11 236 7.2
2014-Nov-26 00:01 236 7.2
2014-Nov-25 23:41 236 7.2
2014-Nov-25 23:31 236 7.2
2014-Nov-25 23:11 236 6.7
2014-Nov-25 23:01 236 6.7
2014-Nov-25 22:41 236 6.7
2014-Nov-25 22:31 236 6.7
2014-Nov-25 22:11 236 6.7
2014-Nov-25 22:01 236 6.7
2014-Nov-25 21:41 236 6.7
2014-Nov-25 21:31 236 6.7
2014-Nov-25 21:11 236 6.7
2014-Nov-25 21:01 236 7.2
2014-Nov-25 20:41 236 7.2
2014-Nov-25 20:31 236 7.2
2014-Nov-25 20:11 236 7.2
2014-Nov-25 20:01 236 7.2